Time;durP1;ratioP1;P1;durP2;ratioP2;P2;SDS_P1;SDS_P2;PMS_P1;PMS_P2;Temp;Humidity;BMP_temperature;BMP_pressure;BME280_temperature;BME280_humidity;BME280_pressure;Samples;Min_cycle;Max_cycle;Signal;HPM_P1;HPM_P2
2021/11/28 00:02:14;;;;;;;18.65;12.40;;;0.80;99.90;;;;;;5076268;28;20028;-49
2021/11/28 00:04:40;;;;;;;17.83;12.50;;;0.80;99.90;;;;;;5076386;28;20036;-52
2021/11/28 00:07:18;;;;;;;19.17;12.27;;;0.80;99.90;;;;;;5076872;28;20032;-53
2021/11/28 00:14:50;;;;;;;21.88;13.93;;;0.80;99.90;;;;;;5076213;28;20036;-51
2021/11/28 00:17:16;;;;;;;18.13;12.48;;;0.80;99.90;;;;;;5091736;28;20038;-52
2021/11/28 00:19:42;;;;;;;20.42;13.07;;;0.80;99.90;;;;;;5075981;28;20127;-58
2021/11/28 00:22:08;;;;;;;21.55;14.20;;;0.80;99.90;;;;;;5076022;28;20110;-53
2021/11/28 00:24:34;;;;;;;16.17;11.82;;;0.80;99.90;;;;;;5076284;28;20119;-60
2021/11/28 00:27:00;;;;;;;16.95;12.15;;;0.80;99.90;;;;;;5076344;28;20045;-55
2021/11/28 00:29:27;;;;;;;17.70;12.45;;;0.80;99.90;;;;;;5075706;28;20107;-54
2021/11/28 00:31:55;;;;;;;20.38;12.02;;;0.80;99.90;;;;;;5075681;28;20035;-53
2021/11/28 00:34:21;;;;;;;19.27;13.15;;;0.80;99.90;;;;;;5075857;28;20629;-51
2021/11/28 00:36:47;;;;;;;20.13;13.15;;;0.80;99.90;;;;;;5075686;28;20024;-53
2021/11/28 00:39:12;;;;;;;18.38;12.48;;;0.80;99.90;;;;;;5074176;28;20442;-52
2021/11/28 00:41:38;;;;;;;20.05;13.88;;;0.80;99.90;;;;;;5076767;28;20063;-49
2021/11/28 00:44:04;;;;;;;24.45;15.52;;;0.80;99.90;;;;;;5076422;28;20094;-53
2021/11/28 00:46:29;;;;;;;21.80;14.43;;;0.80;99.90;;;;;;5075585;28;20036;-58
2021/11/28 00:48:56;;;;;;;19.77;13.77;;;0.80;99.90;;;;;;5076092;28;20078;-57
2021/11/28 00:51:33;;;;;;;22.33;14.10;;;0.80;99.90;;;;;;5075474;28;20041;-52
2021/11/28 00:53:58;;;;;;;18.05;12.13;;;0.80;99.90;;;;;;5075919;28;20021;-56
2021/11/28 00:56:24;;;;;;;21.33;13.73;;;0.80;99.90;;;;;;5076246;28;20036;-55
2021/11/28 00:58:50;;;;;;;19.75;12.80;;;0.80;99.90;;;;;;5075596;28;20450;-59
2021/11/28 01:01:16;;;;;;;20.95;13.38;;;0.80;99.90;;;;;;5075522;28;20036;-57
2021/11/28 01:03:42;;;;;;;19.83;12.73;;;0.80;99.90;;;;;;5091204;28;20032;-52
2021/11/28 01:06:08;;;;;;;18.20;13.25;;;0.80;99.90;;;;;;5075265;28;20036;-52
2021/11/28 01:08:33;;;;;;;20.73;14.07;;;0.80;99.90;;;;;;5075020;28;20028;-52
2021/11/28 01:10:59;;;;;;;19.48;13.57;;;0.80;99.90;;;;;;5075515;28;20052;-58
2021/11/28 01:13:24;;;;;;;22.60;14.70;;;0.80;99.90;;;;;;5074912;28;20108;-54
2021/11/28 01:15:50;;;;;;;18.40;14.18;;;0.80;99.90;;;;;;5090786;28;20093;-58
2021/11/28 01:18:16;;;;;;;19.42;13.70;;;0.80;99.90;;;;;;5075357;28;20035;-56
2021/11/28 01:20:41;;;;;;;22.35;14.93;;;0.80;99.90;;;;;;5076184;28;20031;-57
2021/11/28 01:23:07;;;;;;;19.83;13.63;;;0.80;99.90;;;;;;5075256;28;20697;-53
2021/11/28 01:25:32;;;;;;;20.90;13.63;;;0.80;99.90;;;;;;5075361;28;20035;-50
2021/11/28 01:27:58;;;;;;;19.42;13.75;;;0.80;99.90;;;;;;5090469;28;20032;-57
2021/11/28 01:30:24;;;;;;;20.60;13.55;;;0.80;99.90;;;;;;5090439;28;20063;-57
2021/11/28 01:32:49;;;;;;;21.30;13.95;;;0.80;99.90;;;;;;5074732;28;20734;-59
2021/11/28 01:35:17;;;;;;;20.52;12.80;;;0.80;99.90;;;;;;5073429;28;20111;-54
2021/11/28 01:37:44;;;;;;;22.23;13.35;;;0.80;99.90;;;;;;5074548;28;20036;-51
2021/11/28 01:40:17;;;;;;;23.50;13.63;;;0.80;99.90;;;;;;5075132;28;20064;-56
2021/11/28 01:42:49;;;;;;;25.77;15.88;;;0.80;99.90;;;;;;5074443;28;20051;-55
2021/11/28 01:45:21;;;;;;;21.77;14.15;;;0.80;99.90;;;;;;5074570;28;20024;-52
2021/11/28 01:47:48;;;;;;;24.73;15.65;;;0.80;99.90;;;;;;5074358;28;20515;-56
2021/11/28 01:50:14;;;;;;;19.60;13.63;;;0.80;99.90;;;;;;5074916;28;20512;-53
2021/11/28 01:52:40;;;;;;;18.08;14.05;;;0.80;99.90;;;;;;5074554;28;20025;-56
2021/11/28 01:55:13;;;;;;;25.10;14.50;;;0.80;99.90;;;;;;5073719;28;20203;-51
2021/11/28 01:57:39;;;;;;;21.48;14.63;;;0.80;99.90;;;;;;5069865;28;20082;-58
2021/11/28 02:00:11;;;;;;;22.25;13.55;;;0.80;99.90;;;;;;5071993;28;20119;-56
2021/11/28 02:02:37;;;;;;;22.23;15.13;;;0.80;99.90;;;;;;5072755;28;20046;-56
2021/11/28 02:05:04;;;;;;;22.27;14.23;;;0.90;99.90;;;;;;5072185;28;20032;-53
2021/11/28 02:07:30;;;;;;;20.15;14.15;;;0.90;99.90;;;;;;5073839;28;20103;-50
2021/11/28 02:09:56;;;;;;;17.73;13.18;;;0.90;99.90;;;;;;5074375;28;20542;-50
2021/11/28 02:12:29;;;;;;;17.33;12.48;;;0.90;99.90;;;;;;5074043;28;20036;-57
2021/11/28 02:14:55;;;;;;;17.33;12.45;;;0.90;99.90;;;;;;5074083;28;20799;-52
2021/11/28 02:17:21;;;;;;;21.30;13.75;;;0.90;99.90;;;;;;5074922;28;20075;-55
2021/11/28 02:19:47;;;;;;;21.70;15.18;;;0.90;99.90;;;;;;5073659;28;20698;-54
2021/11/28 02:22:12;;;;;;;19.75;12.63;;;0.90;99.90;;;;;;5072401;28;20035;-53
2021/11/28 02:24:38;;;;;;;22.63;13.48;;;0.90;99.90;;;;;;5073670;28;20041;-55
2021/11/28 02:27:04;;;;;;;28.88;15.48;;;0.90;99.90;;;;;;5089941;28;20043;-58
2021/11/28 02:29:29;;;;;;;22.38;14.13;;;1.00;99.90;;;;;;5074110;28;20103;-55
2021/11/28 02:31:55;;;;;;;23.52;15.23;;;1.00;99.90;;;;;;5074292;28;20051;-51
2021/11/28 02:34:21;;;;;;;27.33;16.00;;;1.00;99.90;;;;;;5073832;28;20043;-48
2021/11/28 02:36:53;;;;;;;25.13;14.68;;;1.00;99.90;;;;;;5074175;28;20044;-53
2021/11/28 02:39:22;;;;;;;24.48;15.82;;;1.00;99.90;;;;;;5072610;28;20024;-49
2021/11/28 02:41:48;;;;;;;23.90;15.07;;;0.90;99.90;;;;;;5074132;28;20043;-52
2021/11/28 02:44:16;;;;;;;26.23;15.77;;;1.00;99.90;;;;;;5073824;28;20744;-50
2021/11/28 02:46:44;;;;;;;26.42;16.25;;;1.00;99.90;;;;;;5073414;28;20024;-52
2021/11/28 02:49:09;;;;;;;26.33;16.48;;;1.00;99.90;;;;;;5073066;28;20551;-52
2021/11/28 02:51:36;;;;;;;22.38;14.25;;;1.00;99.90;;;;;;5072431;28;20059;-55
2021/11/28 02:54:04;;;;;;;23.25;14.85;;;1.00;99.90;;;;;;5073168;28;20031;-52
2021/11/28 02:56:30;;;;;;;23.63;15.70;;;1.00;99.90;;;;;;5073003;28;20369;-51
2021/11/28 02:58:56;;;;;;;26.30;15.05;;;1.00;99.90;;;;;;5071828;28;20062;-58
2021/11/28 03:01:22;;;;;;;28.33;16.58;;;1.00;99.90;;;;;;5073124;28;20032;-51
2021/11/28 03:03:50;;;;;;;26.88;17.27;;;1.00;99.90;;;;;;5073280;28;20105;-59
2021/11/28 03:06:16;;;;;;;27.25;14.48;;;1.10;99.90;;;;;;5073070;28;20856;-50
2021/11/28 03:08:42;;;;;;;25.77;15.25;;;1.10;99.90;;;;;;5072713;28;20115;-52
2021/11/28 03:11:11;;;;;;;23.77;15.00;;;1.10;99.90;;;;;;5073047;28;20446;-55
2021/11/28 03:13:40;;;;;;;24.90;14.82;;;1.10;99.90;;;;;;5072860;28;20383;-52
2021/11/28 03:16:09;;;;;;;33.83;15.73;;;1.10;99.90;;;;;;5072577;28;20055;-54
2021/11/28 03:18:35;;;;;;;23.67;15.68;;;1.10;99.90;;;;;;5072609;28;20032;-48
2021/11/28 03:21:07;;;;;;;29.35;15.73;;;1.10;99.90;;;;;;5073473;28;20027;-51
2021/11/28 03:23:35;;;;;;;26.17;16.90;;;1.10;99.90;;;;;;5073364;28;20050;-54
2021/11/28 03:26:12;;;;;;;24.25;15.65;;;1.20;99.90;;;;;;5072841;28;20029;-53
2021/11/28 03:28:49;;;;;;;23.10;14.88;;;1.20;99.90;;;;;;5073091;28;20111;-51
2021/11/28 03:31:14;;;;;;;;;;;1.20;99.90;;;;;;5073370;28;20446;-51
2021/11/28 03:33:40;;;;;;;24.27;14.17;;;1.10;99.90;;;;;;5088707;28;19908;-52
2021/11/28 03:36:08;;;;;;;25.95;16.42;;;1.20;99.90;;;;;;5073260;28;21379;-51
2021/11/28 03:38:35;;;;;;;26.35;17.20;;;1.20;99.90;;;;;;5070884;28;20040;-57
2021/11/28 03:41:00;;;;;;;25.75;17.13;;;1.20;99.90;;;;;;5073400;28;20027;-52
2021/11/28 03:43:26;;;;;;;26.35;15.68;;;1.20;99.90;;;;;;5073099;28;20451;-52
2021/11/28 03:45:52;;;;;;;28.83;17.63;;;1.20;99.90;;;;;;5088358;28;20032;-59
2021/11/28 03:48:17;;;;;;;30.95;18.83;;;1.30;99.90;;;;;;5072585;28;20100;-53
2021/11/28 03:50:43;;;;;;;28.48;16.52;;;1.30;99.90;;;;;;5071536;28;20031;-49
2021/11/28 03:53:09;;;;;;;28.13;17.15;;;1.30;99.90;;;;;;5073049;28;20066;-50
2021/11/28 03:55:35;;;;;;;27.52;17.90;;;1.30;99.90;;;;;;5072670;28;20043;-57
2021/11/28 03:58:01;;;;;;;28.90;18.67;;;1.30;99.90;;;;;;5072049;28;20515;-50
2021/11/28 04:00:27;;;;;;;30.38;17.08;;;1.30;99.90;;;;;;5072889;28;20115;-54
2021/11/28 04:02:52;;;;;;;27.75;16.23;;;1.30;99.90;;;;;;5073044;28;20040;-49
2021/11/28 04:05:18;;;;;;;25.17;16.38;;;1.40;99.90;;;;;;5072246;28;20114;-53
2021/11/28 04:07:43;;;;;;;28.48;17.30;;;1.40;99.90;;;;;;5072456;28;20089;-49
2021/11/28 04:10:09;;;;;;;29.70;17.33;;;1.40;99.90;;;;;;5072685;28;20024;-51
2021/11/28 04:12:35;;;;;;;26.13;17.52;;;1.40;99.90;;;;;;5072080;28;20043;-57
2021/11/28 04:15:01;;;;;;;28.77;16.08;;;1.40;99.90;;;;;;5072311;28;20037;-51
2021/11/28 04:17:28;;;;;;;28.50;17.80;;;1.40;99.90;;;;;;5072216;28;20078;-55
2021/11/28 04:19:55;;;;;;;28.15;16.75;;;1.40;99.90;;;;;;5072545;28;20032;-49
2021/11/28 04:22:21;;;;;;;28.10;16.70;;;1.40;99.90;;;;;;5072253;28;20104;-54
2021/11/28 04:24:47;;;;;;;29.38;16.58;;;1.40;99.90;;;;;;5073343;28;20082;-52
2021/11/28 04:27:14;;;;;;;26.52;16.58;;;1.40;99.90;;;;;;5073777;28;20052;-58
2021/11/28 04:29:40;;;;;;;25.48;15.23;;;1.40;99.90;;;;;;5075461;28;20078;-52
2021/11/28 04:32:05;;;;;;;22.10;15.15;;;1.40;99.90;;;;;;5076216;28;20033;-57
2021/11/28 04:34:31;;;;;;;24.15;15.02;;;1.40;99.90;;;;;;5075482;28;20037;-56
2021/11/28 04:36:57;;;;;;;24.50;16.63;;;1.40;99.90;;;;;;5075773;28;20047;-49
2021/11/28 04:39:22;;;;;;;24.55;16.27;;;1.40;99.90;;;;;;5075549;28;20036;-51
2021/11/28 04:41:48;;;;;;;24.73;15.57;;;1.40;99.90;;;;;;5075625;28;20046;-53
2021/11/28 04:44:14;;;;;;;24.73;15.38;;;1.40;99.90;;;;;;5076038;28;20101;-50
2021/11/28 04:46:40;;;;;;;23.88;15.20;;;1.40;99.90;;;;;;5076024;28;20435;-51
2021/11/28 04:49:07;;;;;;;28.27;16.48;;;1.40;99.90;;;;;;5091626;28;20039;-51
2021/11/28 04:51:33;;;;;;;23.50;14.63;;;1.40;99.90;;;;;;5076061;28;20024;-49
2021/11/28 04:53:59;;;;;;;24.92;15.77;;;1.40;99.90;;;;;;5075845;28;20067;-51
2021/11/28 04:56:26;;;;;;;25.90;15.27;;;1.40;99.90;;;;;;5076075;28;20044;-55
2021/11/28 04:58:52;;;;;;;23.75;15.20;;;1.40;99.90;;;;;;5075322;28;20036;-55
2021/11/28 05:01:18;;;;;;;25.08;15.73;;;1.50;99.90;;;;;;5076482;28;20020;-50
2021/11/28 05:03:44;;;;;;;24.55;16.50;;;1.40;99.90;;;;;;5074363;28;20503;-57
2021/11/28 05:06:10;;;;;;;26.52;15.18;;;1.40;99.90;;;;;;5075605;28;20031;-54
2021/11/28 05:08:35;;;;;;;26.08;15.63;;;1.50;99.90;;;;;;5075576;28;20191;-49
2021/11/28 05:11:01;;;;;;;20.38;13.98;;;1.40;99.90;;;;;;5075592;28;20032;-52
2021/11/28 05:13:26;;;;;;;25.98;15.85;;;1.40;99.90;;;;;;5075602;28;20090;-54
2021/11/28 05:15:52;;;;;;;22.95;14.95;;;1.50;99.90;;;;;;5075656;28;20040;-57
2021/11/28 05:18:17;;;;;;;23.58;14.70;;;1.50;99.90;;;;;;5074971;28;20025;-55
2021/11/28 05:20:46;;;;;;;23.10;16.13;;;1.50;99.90;;;;;;5075243;28;20428;-51
2021/11/28 05:23:12;;;;;;;24.85;17.75;;;1.50;99.90;;;;;;5075681;28;20044;-52
2021/11/28 05:25:38;;;;;;;26.52;15.90;;;1.50;99.90;;;;;;5074970;28;20043;-52
2021/11/28 05:28:06;;;;;;;20.30;15.93;;;1.50;99.90;;;;;;5074758;28;20036;-52
2021/11/28 05:30:32;;;;;;;23.35;15.80;;;1.50;99.90;;;;;;5075133;28;20033;-52
2021/11/28 05:32:58;;;;;;;23.50;15.88;;;1.50;99.90;;;;;;5075102;28;20031;-48
2021/11/28 05:35:24;;;;;;;21.30;15.30;;;1.50;99.90;;;;;;5074850;28;20029;-52
2021/11/28 05:37:49;;;;;;;23.67;15.25;;;1.50;99.90;;;;;;5074027;28;20477;-57
2021/11/28 05:40:15;;;;;;;23.63;15.90;;;1.50;99.90;;;;;;5074813;28;20071;-55
2021/11/28 05:42:46;;;;;;;23.58;15.45;;;1.50;99.90;;;;;;5073326;28;20621;-51
2021/11/28 05:45:12;;;;;;;23.58;16.15;;;1.50;99.90;;;;;;5074572;28;20140;-54
2021/11/28 05:47:37;;;;;;;23.52;14.38;;;1.50;99.90;;;;;;5074491;28;20209;-55
2021/11/28 05:50:03;;;;;;;22.25;14.75;;;1.50;99.90;;;;;;5075198;28;20889;-52
2021/11/28 05:52:29;;;;;;;20.08;13.80;;;1.50;99.90;;;;;;5074534;28;20043;-56
2021/11/28 05:54:56;;;;;;;20.33;14.48;;;1.50;99.90;;;;;;5074318;28;20107;-51
2021/11/28 05:57:21;;;;;;;19.02;13.52;;;1.40;99.90;;;;;;5074146;28;20047;-50
2021/11/28 05:59:47;;;;;;;21.00;13.90;;;1.40;99.90;;;;;;5074261;28;20032;-53
2021/11/28 06:02:12;;;;;;;19.85;13.48;;;1.40;99.90;;;;;;5074261;28;20380;-51
2021/11/28 06:04:38;;;;;;;19.88;13.07;;;1.40;99.90;;;;;;5074128;28;20071;-55
2021/11/28 06:07:04;;;;;;;23.05;14.73;;;1.40;99.90;;;;;;5074340;28;20130;-52
2021/11/28 06:09:30;;;;;;;22.80;14.52;;;1.50;99.90;;;;;;5074311;28;20036;-51
2021/11/28 06:11:57;;;;;;;21.52;14.50;;;1.50;99.90;;;;;;5074391;28;20049;-53
2021/11/28 06:14:22;;;;;;;22.40;15.63;;;1.50;99.90;;;;;;5074488;28;20138;-56
2021/11/28 06:16:48;;;;;;;20.48;13.60;;;1.50;99.90;;;;;;5074595;28;20621;-51
2021/11/28 06:19:13;;;;;;;21.67;15.05;;;1.50;99.90;;;;;;5073991;28;20086;-48
2021/11/28 06:21:39;;;;;;;21.27;15.50;;;1.50;99.90;;;;;;5073721;28;20048;-49
2021/11/28 06:24:05;;;;;;;22.73;14.80;;;1.50;99.90;;;;;;5073743;28;20036;-54
2021/11/28 06:26:30;;;;;;;22.05;13.73;;;1.60;99.90;;;;;;5074463;28;20044;-56
2021/11/28 06:28:56;;;;;;;22.00;15.68;;;1.60;99.90;;;;;;5074290;28;20024;-51
2021/11/28 06:31:22;;;;;;;21.92;13.93;;;1.60;99.90;;;;;;5072934;28;20143;-48
2021/11/28 06:33:47;;;;;;;22.17;14.30;;;1.60;99.90;;;;;;5073688;28;20735;-51
2021/11/28 06:36:14;;;;;;;23.25;14.07;;;1.60;99.90;;;;;;5073860;28;20628;-53
2021/11/28 06:38:40;;;;;;;21.10;13.93;;;1.70;99.90;;;;;;5073264;28;20064;-53
2021/11/28 06:41:05;;;;;;;20.58;14.45;;;1.60;99.90;;;;;;5073734;28;20129;-49
2021/11/28 06:43:31;;;;;;;20.65;15.10;;;1.60;99.90;;;;;;5089225;28;20039;-59
2021/11/28 06:45:57;;;;;;;24.13;14.88;;;1.60;99.90;;;;;;5073458;28;20669;-52
2021/11/28 06:48:23;;;;;;;21.15;14.50;;;1.60;99.90;;;;;;5072076;28;20031;-51
2021/11/28 06:50:49;;;;;;;24.65;16.45;;;1.60;99.90;;;;;;5072924;28;20028;-50
2021/11/28 06:53:16;;;;;;;23.98;15.02;;;1.70;99.90;;;;;;5073951;28;20082;-52
2021/11/28 06:55:42;;;;;;;19.02;13.80;;;1.70;99.90;;;;;;5073656;28;20063;-56
2021/11/28 06:58:07;;;;;;;20.40;13.90;;;1.70;99.90;;;;;;5073201;28;20531;-49
2021/11/28 07:00:33;;;;;;;17.92;12.98;;;1.60;99.90;;;;;;5073836;28;20039;-49
2021/11/28 07:02:59;;;;;;;18.42;13.52;;;1.70;99.90;;;;;;5072278;28;20040;-55
2021/11/28 07:05:25;;;;;;;21.17;15.27;;;1.70;99.90;;;;;;5088532;28;20027;-50
2021/11/28 07:07:50;;;;;;;20.83;15.15;;;1.70;99.90;;;;;;5073876;28;20031;-51
2021/11/28 07:10:16;;;;;;;21.45;13.90;;;1.70;99.90;;;;;;5072194;28;20732;-48
2021/11/28 07:12:43;;;;;;;19.35;14.57;;;1.70;99.90;;;;;;5073081;28;20416;-56
2021/11/28 07:15:10;;;;;;;19.90;13.80;;;1.70;99.90;;;;;;5073143;28;20028;-51
2021/11/28 07:17:35;;;;;;;19.83;14.55;;;1.70;99.90;;;;;;5073148;28;20039;-50
2021/11/28 07:20:01;;;;;;;21.27;14.70;;;1.80;99.90;;;;;;5072336;28;20424;-54
2021/11/28 07:22:27;;;;;;;20.08;14.25;;;1.80;99.90;;;;;;5072828;28;20043;-56
2021/11/28 07:24:52;;;;;;;24.83;16.15;;;1.80;99.90;;;;;;5072258;28;20032;-56
2021/11/28 07:27:18;;;;;;;21.58;14.73;;;1.80;99.90;;;;;;5072580;28;20510;-51
2021/11/28 07:29:44;;;;;;;22.63;14.82;;;1.80;99.90;;;;;;5087752;28;20032;-50
2021/11/28 07:32:09;;;;;;;22.05;15.25;;;1.80;99.90;;;;;;5072933;28;20036;-48
2021/11/28 07:34:35;;;;;;;21.00;15.15;;;1.80;99.90;;;;;;5070907;28;20040;-53
2021/11/28 07:37:00;;;;;;;22.58;15.27;;;1.80;99.90;;;;;;5072571;28;20039;-53
2021/11/28 07:39:26;;;;;;;19.48;14.20;;;1.90;99.90;;;;;;5071432;28;20059;-50
2021/11/28 07:41:52;;;;;;;20.55;14.30;;;1.90;99.90;;;;;;5072281;28;20067;-52
2021/11/28 07:44:17;;;;;;;20.58;14.82;;;1.90;99.90;;;;;;5072943;28;20066;-52
2021/11/28 07:46:43;;;;;;;21.52;14.40;;;1.90;99.90;;;;;;5073025;28;20206;-55
2021/11/28 07:49:09;;;;;;;20.08;13.85;;;1.90;99.90;;;;;;5089039;28;20042;-50
2021/11/28 07:51:34;;;;;;;18.58;13.60;;;1.90;99.90;;;;;;5073497;28;20059;-52
2021/11/28 07:54:01;;;;;;;19.70;13.85;;;1.90;99.90;;;;;;5072106;28;20020;-53
2021/11/28 07:56:27;;;;;;;19.02;13.68;;;1.90;99.90;;;;;;5072545;28;20056;-51
2021/11/28 07:58:53;;;;;;;17.48;13.10;;;1.90;99.90;;;;;;5072230;28;20031;-50
2021/11/28 08:01:18;;;;;;;20.92;14.00;;;1.90;99.90;;;;;;5074521;28;20031;-50
2021/11/28 08:03:44;;;;;;;21.08;13.20;;;2.00;99.90;;;;;;5076575;28;20036;-58
2021/11/28 08:06:10;;;;;;;21.30;15.40;;;2.00;99.90;;;;;;5075871;28;20476;-55
2021/11/28 08:08:36;;;;;;;19.02;12.82;;;2.00;99.90;;;;;;5076703;28;20035;-51
2021/11/28 08:11:02;;;;;;;19.80;13.90;;;2.00;99.90;;;;;;5076704;28;20039;-49
2021/11/28 08:13:28;;;;;;;21.75;15.45;;;2.00;99.90;;;;;;5076190;28;20032;-52
2021/11/28 08:15:54;;;;;;;20.52;13.95;;;2.00;99.90;;;;;;5076695;28;20116;-50
2021/11/28 08:18:20;;;;;;;21.02;14.07;;;2.10;99.90;;;;;;5076017;28;20417;-54
2021/11/28 08:20:45;;;;;;;21.42;13.45;;;2.10;99.90;;;;;;5076630;28;20039;-48
2021/11/28 08:23:11;;;;;;;20.33;14.65;;;2.10;99.90;;;;;;5091590;28;20036;-53
2021/11/28 08:25:36;;;;;;;21.45;14.00;;;2.10;99.90;;;;;;5076333;28;20803;-56
2021/11/28 08:28:06;;;;;;;20.75;14.07;;;2.10;99.90;;;;;;5076283;28;20055;-52
2021/11/28 08:30:32;;;;;;;19.90;13.85;;;2.10;99.90;;;;;;5076872;28;20032;-57
2021/11/28 08:32:58;;;;;;;19.85;13.55;;;2.10;99.90;;;;;;5075360;28;20029;-52
2021/11/28 08:35:23;;;;;;;23.42;14.98;;;2.20;99.90;;;;;;5076055;28;20036;-48
2021/11/28 08:37:49;;;;;;;22.40;14.75;;;2.20;99.90;;;;;;5075518;28;20027;-50
2021/11/28 08:40:17;;;;;;;26.13;16.15;;;2.30;99.90;;;;;;5075966;28;20158;-48
2021/11/28 08:42:43;;;;;;;20.75;14.63;;;2.30;99.90;;;;;;5073996;28;20437;-54
2021/11/28 08:45:10;;;;;;;22.80;15.15;;;2.30;99.90;;;;;;5075745;28;20028;-56
2021/11/28 08:47:37;;;;;;;21.73;14.82;;;2.40;99.90;;;;;;5075855;28;20035;-51
2021/11/28 08:50:05;;;;;;;22.02;14.75;;;2.40;99.90;;;;;;5076588;28;20041;-50
2021/11/28 08:52:30;;;;;;;23.63;15.25;;;2.40;99.90;;;;;;5076613;28;20088;-54
2021/11/28 08:54:56;;;;;;;22.23;15.45;;;2.40;99.90;;;;;;5074880;28;20427;-50
2021/11/28 08:57:22;;;;;;;19.20;14.27;;;2.40;99.90;;;;;;5075811;28;20098;-50
2021/11/28 08:59:49;;;;;;;18.80;13.50;;;2.40;99.90;;;;;;5074973;28;20527;-52
2021/11/28 09:02:16;;;;;;;20.45;13.05;;;2.40;99.90;;;;;;5075858;28;20396;-48
2021/11/28 09:04:42;;;;;;;18.15;13.32;;;2.40;99.90;;;;;;5075497;28;20044;-54
2021/11/28 09:07:07;;;;;;;20.20;14.40;;;2.40;99.90;;;;;;5075787;28;20035;-55
2021/11/28 09:09:35;;;;;;;18.70;13.27;;;2.50;99.90;;;;;;5074300;28;20535;-49
2021/11/28 09:12:02;;;;;;;21.48;14.30;;;2.50;99.90;;;;;;5073556;28;20047;-52
2021/11/28 09:14:27;;;;;;;20.45;14.25;;;2.50;99.90;;;;;;5074600;28;20024;-54
2021/11/28 09:16:53;;;;;;;18.25;13.18;;;2.50;99.90;;;;;;5073980;28;20416;-54
2021/11/28 09:20:04;;;;;;;19.98;13.70;;;2.50;99.90;;;;;;5074530;28;20036;-54
2021/11/28 09:22:10;;;;;;;20.58;14.20;;;2.50;99.90;;;;;;5068342;28;20196;-50
2021/11/28 09:24:36;;;;;;;20.33;14.45;;;2.50;99.90;;;;;;5073645;28;20718;-54
2021/11/28 09:27:10;;;;;;;19.55;14.02;;;2.60;99.90;;;;;;5074885;28;20174;-53
2021/11/28 09:29:38;;;;;;;19.15;13.27;;;2.60;99.90;;;;;;5074640;28;20028;-54
2021/11/28 09:32:06;;;;;;;20.23;14.32;;;2.60;99.90;;;;;;5074746;28;20036;-56
2021/11/28 09:34:32;;;;;;;20.40;14.38;;;2.60;99.90;;;;;;5075637;28;20068;-50
2021/11/28 09:36:58;;;;;;;20.67;14.27;;;2.60;99.90;;;;;;5075209;28;20036;-50
2021/11/28 09:39:24;;;;;;;20.00;14.13;;;2.70;99.90;;;;;;5074693;28;20106;-51
2021/11/28 09:41:56;;;;;;;21.00;14.63;;;2.70;99.90;;;;;;5074760;28;20147;-52
2021/11/28 09:44:23;;;;;;;19.88;13.30;;;2.70;99.90;;;;;;5075388;28;20613;-51
2021/11/28 09:46:50;;;;;;;17.77;12.98;;;2.70;99.90;;;;;;5074172;28;20055;-49
2021/11/28 09:49:17;;;;;;;19.52;14.45;;;2.70;99.90;;;;;;5074411;28;20025;-55
2021/11/28 09:51:46;;;;;;;19.70;14.02;;;2.80;99.90;;;;;;5073276;28;20097;-54
2021/11/28 09:54:15;;;;;;;19.83;14.25;;;2.80;99.90;;;;;;5073073;28;20021;-50
2021/11/28 09:56:40;;;;;;;19.42;13.85;;;2.80;99.90;;;;;;5069783;28;20032;-56
2021/11/28 09:59:08;;;;;;;18.83;13.77;;;2.80;99.90;;;;;;5086790;28;20032;-50
2021/11/28 10:01:36;;;;;;;19.13;13.80;;;2.80;99.90;;;;;;5073342;28;20039;-52
2021/11/28 10:04:02;;;;;;;18.83;13.73;;;2.90;99.90;;;;;;5073225;28;20503;-56
2021/11/28 10:06:28;;;;;;;18.40;13.52;;;2.80;99.90;;;;;;5073657;28;20484;-48
2021/11/28 10:08:55;;;;;;;20.83;14.32;;;2.80;99.90;;;;;;5073762;28;20187;-50
2021/11/28 10:11:37;;;;;;;22.55;14.85;;;2.90;99.90;;;;;;5072778;28;20020;-51
2021/11/28 10:14:04;;;;;;;19.52;13.35;;;2.90;99.90;;;;;;5072866;28;20029;-47
2021/11/28 10:16:30;;;;;;;20.27;14.23;;;3.00;99.90;;;;;;5089451;28;20061;-53
2021/11/28 10:18:56;;;;;;;22.27;13.88;;;3.00;99.90;;;;;;5074280;28;20107;-48
2021/11/28 10:21:21;;;;;;;18.40;12.85;;;3.00;99.90;;;;;;5079623;23;20595;-53
2021/11/28 10:24:10;;;;;;;19.88;12.50;;;2.90;99.90;;;;;;5055789;23;20029;-80
2021/11/28 10:26:55;;;;;;;17.88;12.25;;;2.90;99.90;;;;;;5050850;28;20094;-79
2021/11/28 10:29:23;;;;;;;18.83;12.45;;;2.90;99.90;;;;;;5046231;28;20025;-79
2021/11/28 10:31:58;;;;;;;17.73;12.82;;;3.00;99.90;;;;;;5057072;28;20021;-79
2021/11/28 10:34:29;;;;;;;17.75;12.02;;;3.00;99.90;;;;;;5020912;28;20028;-79
2021/11/28 10:37:15;;;;;;;16.95;13.05;;;3.10;99.90;;;;;;5045466;28;20032;-79
2021/11/28 10:39:45;;;;;;;17.00;11.88;;;3.00;99.90;;;;;;5048065;28;20021;-79
2021/11/28 10:42:18;;;;;;;19.33;13.27;;;3.10;99.90;;;;;;5039650;28;20033;-79
2021/11/28 10:45:06;;;;;;;17.75;13.05;;;3.10;99.90;;;;;;5029158;28;20637;-79
2021/11/28 10:47:33;;;;;;;16.75;12.45;;;3.10;99.90;;;;;;5036389;28;20036;-80
2021/11/28 10:50:08;;;;;;;16.17;11.88;;;3.10;99.90;;;;;;5028583;28;20026;-79
2021/11/28 10:52:33;;;;;;;15.90;11.80;;;3.10;99.90;;;;;;5037130;28;20039;-80
2021/11/28 10:55:22;;;;;;;17.85;11.98;;;3.10;99.90;;;;;;5037879;28;20691;-79
2021/11/28 10:58:07;;;;;;;16.13;12.07;;;3.10;99.90;;;;;;5027142;28;20477;-79
2021/11/28 11:00:35;;;;;;;18.92;11.95;;;3.10;99.90;;;;;;5036759;28;20045;-79
2021/11/28 11:03:23;;;;;;;17.02;12.20;;;3.20;99.90;;;;;;5029041;28;20399;-78
2021/11/28 11:05:51;;;;;;;16.27;12.60;;;3.20;99.90;;;;;;5028262;28;20068;-80
2021/11/28 11:08:23;;;;;;;19.08;11.93;;;3.30;99.90;;;;;;5027956;28;20021;-79
2021/11/28 11:11:02;;;;;;;18.55;13.13;;;3.30;99.90;;;;;;5038009;28;20039;-80
2021/11/28 11:13:28;;;;;;;16.33;11.63;;;3.40;99.90;;;;;;5028611;28;20092;-80
2021/11/28 11:15:53;;;;;;;19.15;12.07;;;3.40;99.90;;;;;;5028315;28;20084;-78
2021/11/28 11:18:21;;;;;;;18.85;12.65;;;3.40;99.90;;;;;;5030510;28;20053;-79
2021/11/28 11:20:49;;;;;;;17.67;12.13;;;3.50;99.90;;;;;;5037924;28;20037;-79
2021/11/28 11:23:34;;;;;;;15.63;11.80;;;3.50;99.90;;;;;;5035788;28;20173;-80
2021/11/28 11:26:16;;;;;;;18.15;12.20;;;3.50;99.90;;;;;;5037521;28;20028;-80
2021/11/28 11:29:04;;;;;;;15.70;12.95;;;3.50;99.90;;;;;;5037086;28;20025;-79
2021/11/28 11:31:29;;;;;;;18.77;13.20;;;3.50;99.90;;;;;;5027350;28;20629;-79
2021/11/28 11:33:55;;;;;;;19.63;15.15;;;3.60;99.90;;;;;;5029362;28;20032;-79
2021/11/28 11:36:23;;;;;;;17.10;12.35;;;3.60;99.90;;;;;;5028931;28;20030;-77
2021/11/28 11:38:49;;;;;;;19.55;14.38;;;3.60;99.90;;;;;;5030306;28;20037;-78
2021/11/28 11:41:17;;;;;;;17.00;12.70;;;3.60;99.90;;;;;;5029870;28;20163;-78
2021/11/28 11:43:42;;;;;;;20.63;12.85;;;3.60;99.90;;;;;;5028494;28;20044;-78
2021/11/28 11:46:09;;;;;;;18.52;12.77;;;3.60;99.90;;;;;;5026787;28;20030;-80
2021/11/28 11:48:35;;;;;;;20.00;13.48;;;3.70;99.90;;;;;;5017995;28;20156;-79
2021/11/28 11:51:04;;;;;;;18.10;12.35;;;3.70;99.90;;;;;;5025968;28;20125;-78
2021/11/28 11:53:31;;;;;;;16.70;12.23;;;3.70;99.90;;;;;;5036386;28;20086;-79
2021/11/28 11:55:57;;;;;;;17.23;13.20;;;3.70;99.90;;;;;;5026501;28;20029;-79
2021/11/28 11:58:45;;;;;;;18.55;13.30;;;3.70;99.90;;;;;;5035550;28;20029;-78
2021/11/28 12:01:20;;;;;;;17.77;13.30;;;3.70;99.90;;;;;;5027881;28;20034;-78
2021/11/28 12:03:51;;;;;;;20.63;14.43;;;3.70;99.90;;;;;;5025600;28;20116;-79
2021/11/28 12:06:17;;;;;;;19.10;12.75;;;3.80;99.90;;;;;;5025527;28;20083;-79
2021/11/28 12:08:51;;;;;;;21.63;14.85;;;3.70;99.90;;;;;;5025192;28;20041;-79
2021/11/28 12:11:18;;;;;;;18.77;13.70;;;3.80;99.90;;;;;;5016921;28;20379;-79
2021/11/28 12:13:44;;;;;;;17.60;13.13;;;3.70;99.90;;;;;;5042949;28;20030;-80
2021/11/28 12:16:14;;;;;;;18.55;13.00;;;3.70;99.90;;;;;;5036593;28;20052;-79
2021/11/28 12:18:50;;;;;;;18.23;13.20;;;3.70;99.90;;;;;;5025371;28;20069;-79
2021/11/28 12:21:32;;;;;;;15.25;11.38;;;3.80;99.90;;;;;;5026393;28;20033;-78
2021/11/28 12:24:20;;;;;;;18.35;12.73;;;3.80;99.90;;;;;;5026068;28;20034;-79
2021/11/28 12:26:55;;;;;;;16.13;11.65;;;3.80;99.90;;;;;;5035916;28;20053;-79
2021/11/28 12:29:24;;;;;;;18.70;13.00;;;3.80;99.90;;;;;;5017790;28;20079;-78
2021/11/28 12:31:56;;;;;;;16.00;11.95;;;3.90;99.90;;;;;;5036917;28;20029;-79
2021/11/28 12:34:46;;;;;;;19.30;14.25;;;3.90;99.90;;;;;;5026858;28;20672;-79
2021/11/28 12:37:47;;;;;;;18.38;12.00;;;3.90;99.90;;;;;;5036395;28;20589;-80
2021/11/28 12:40:23;;;;;;;18.05;12.35;;;3.90;99.90;;;;;;5028051;28;20040;-79
2021/11/28 12:42:48;;;;;;;19.50;12.20;;;3.90;99.90;;;;;;5042781;28;20025;-79
2021/11/28 12:45:33;;;;;;;18.95;12.32;;;3.80;99.90;;;;;;5025713;28;20038;-79
2021/11/28 12:48:06;;;;;;;17.83;13.32;;;3.80;99.90;;;;;;5019163;28;20115;-79